Allerton, New York
Current Conditions -  °F | °C
As of 11:51 PM on Saturday 22 Nov 2014 (Local Time) from KLGA Reporting Station
Broken Clouds Broken Clouds  
Wind Chill: 37°   Ceiling: 12000
Heat Index: 44°   Visibility: 10mi
Dew Point: 21°   Wind: 14mph
Humidity: 40%   Direction: 230°SW
Pressure: 30.2"   Gusts: NA
Location:  40.8778°N, 73.8721°W
Report Text: KLGA 230451Z 23012KT 10SM FEW075 BKN120 BKN250 07/M06 A3020 RMK AO2 SLP228 T00671061 400671017
Loading
Personal Weather Stations






























Interactive Weather Map New forecast layout! Learn more

10-Day Weather Forecast

Advertisements
Track Severe Weather on mobile